Time;durP1;ratioP1;P1;durP2;ratioP2;P2;SDS_P1;SDS_P2;PMS_P1;PMS_P2;Temp;Humidity;BMP_temperature;BMP_pressure;BME280_temperature;BME280_humidity;BME280_pressure;Samples;Min_cycle;Max_cycle;Signal;HPM_P1;HPM_P2
2023/12/11 00:02:26;;;;;;;9.68;2.53;;;33.50;99.90;;;;;;4978008;28;20210;-70
2023/12/11 00:04:54;;;;;;;10.75;3.05;;;33.90;99.90;;;;;;4995653;28;20174;-69
2023/12/11 00:07:22;;;;;;;8.95;2.47;;;34.10;99.90;;;;;;4978164;28;20538;-69
2023/12/11 00:09:49;;;;;;;12.75;2.90;;;33.90;99.90;;;;;;4995425;28;20653;-70
2023/12/11 00:12:17;;;;;;;13.32;3.00;;;33.60;99.90;;;;;;4995409;28;20257;-70
2023/12/11 00:14:44;;;;;;;8.90;2.70;;;33.30;99.90;;;;;;4995290;28;20261;-72
2023/12/11 00:17:12;;;;;;;14.98;2.83;;;32.70;99.90;;;;;;4995505;28;20179;-69
2023/12/11 00:19:39;;;;;;;10.82;3.42;;;32.80;99.90;;;;;;4995007;28;20179;-69
2023/12/11 00:22:06;;;;;;;10.75;3.00;;;33.10;99.90;;;;;;4995498;28;20183;-72
2023/12/11 00:24:34;;;;;;;10.32;2.42;;;33.60;99.90;;;;;;4995053;28;20548;-69
2023/12/11 00:27:02;;;;;;;13.63;2.83;;;33.80;99.90;;;;;;4994946;28;20178;-71
2023/12/11 00:29:29;;;;;;;12.13;3.22;;;33.20;99.90;;;;;;4994948;28;20214;-70
2023/12/11 00:31:56;;;;;;;7.57;2.33;;;33.40;99.90;;;;;;4995481;28;20175;-70
2023/12/11 00:34:24;;;;;;;11.73;3.28;;;33.90;99.90;;;;;;4995495;28;20202;-71
2023/12/11 00:36:51;;;;;;;8.77;2.50;;;34.30;99.90;;;;;;4995540;28;20566;-73
2023/12/11 00:39:18;;;;;;;6.85;2.40;;;34.40;99.90;;;;;;4994885;28;20233;-73
2023/12/11 00:41:46;;;;;;;11.50;3.00;;;34.40;99.90;;;;;;4995061;28;20671;-73
2023/12/11 00:44:14;;;;;;;11.77;2.30;;;34.60;99.90;;;;;;4994771;28;20718;-71
2023/12/11 00:46:43;;;;;;;19.48;3.53;;;34.70;99.90;;;;;;4994755;28;20178;-73
2023/12/11 00:49:10;;;;;;;12.77;3.03;;;34.40;99.90;;;;;;4977743;28;20183;-69
2023/12/11 00:51:38;;;;;;;12.60;3.35;;;33.80;99.90;;;;;;4994737;28;20179;-70
2023/12/11 00:54:05;;;;;;;7.20;2.95;;;33.30;99.90;;;;;;4994615;28;20287;-70
2023/12/11 00:56:32;;;;;;;10.07;2.97;;;33.30;99.90;;;;;;4994546;28;20632;-70
2023/12/11 00:59:00;;;;;;;7.75;2.40;;;33.80;99.90;;;;;;4977318;28;20545;-70
2023/12/11 01:01:27;;;;;;;15.07;3.08;;;34.50;99.90;;;;;;4994768;28;20632;-67
2023/12/11 01:03:54;;;;;;;10.30;2.97;;;35.00;99.90;;;;;;4994383;28;20325;-68
2023/12/11 01:06:22;;;;;;;16.20;3.40;;;35.40;99.90;;;;;;4994881;28;20189;-69
2023/12/11 01:08:49;;;;;;;12.90;3.10;;;35.20;99.90;;;;;;4995591;28;20182;-71
2023/12/11 01:11:16;;;;;;;13.07;3.22;;;35.60;99.90;;;;;;4998062;28;20538;-68
2023/12/11 01:13:44;;;;;;;9.30;2.67;;;35.90;99.90;;;;;;4979877;28;20179;-71
2023/12/11 01:16:11;;;;;;;14.27;3.15;;;36.10;99.90;;;;;;4996238;28;20186;-74
2023/12/11 01:18:38;;;;;;;7.28;2.50;;;36.00;99.90;;;;;;4996150;28;20177;-73
2023/12/11 01:21:06;;;;;;;13.43;3.30;;;35.70;99.90;;;;;;4995518;28;20206;-73
2023/12/11 01:23:33;;;;;;;8.68;2.63;;;35.50;99.90;;;;;;4994762;28;20213;-73
2023/12/11 01:26:01;;;;;;;11.13;2.60;;;35.60;99.90;;;;;;4994883;28;20175;-72
2023/12/11 01:28:28;;;;;;;11.15;3.00;;;35.90;99.90;;;;;;4994421;28;20269;-72
2023/12/11 01:30:55;;;;;;;9.80;2.83;;;35.50;99.90;;;;;;4994637;28;20260;-72
2023/12/11 01:33:23;;;;;;;7.93;2.67;;;35.20;99.90;;;;;;4993887;28;20186;-71
2023/12/11 01:35:50;;;;;;;10.55;3.03;;;35.30;99.90;;;;;;4993215;28;20179;-69
2023/12/11 01:38:18;;;;;;;9.52;2.90;;;35.60;99.90;;;;;;4993252;28;20179;-69
2023/12/11 01:40:45;;;;;;;12.52;2.58;;;36.00;99.90;;;;;;4972071;28;21644;-69
2023/12/11 01:43:14;;;;;;;10.15;2.95;;;36.20;99.90;;;;;;4989599;28;20213;-69
2023/12/11 01:45:42;;;;;;;11.23;3.78;;;36.20;99.90;;;;;;4992156;28;20679;-70
2023/12/11 01:48:10;;;;;;;9.30;3.08;;;36.30;99.90;;;;;;4991667;28;20187;-70
2023/12/11 01:50:39;;;;;;;14.45;2.95;;;36.30;99.90;;;;;;4991912;28;20183;-71
2023/12/11 01:53:07;;;;;;;12.40;3.30;;;36.30;99.90;;;;;;4992289;28;20175;-70
2023/12/11 01:55:36;;;;;;;11.95;3.20;;;36.20;99.90;;;;;;4991566;28;20661;-69
2023/12/11 01:58:04;;;;;;;16.58;3.47;;;36.20;99.90;;;;;;4992370;28;20620;-70
2023/12/11 02:00:32;;;;;;;12.60;3.13;;;36.10;99.90;;;;;;4992268;28;20171;-70
2023/12/11 02:03:00;;;;;;;13.95;3.40;;;36.00;99.90;;;;;;4991814;28;20241;-72
2023/12/11 02:05:27;;;;;;;18.50;3.63;;;36.10;99.90;;;;;;4991833;28;20187;-69
2023/12/11 02:07:55;;;;;;;11.07;3.03;;;36.10;99.90;;;;;;4992094;28;20190;-71
2023/12/11 02:10:22;;;;;;;10.30;2.97;;;35.90;99.90;;;;;;4991764;28;20185;-72
2023/12/11 02:12:50;;;;;;;14.50;2.83;;;36.00;99.90;;;;;;4992172;28;20680;-71
2023/12/11 02:15:40;;;;;;;14.07;4.13;;;36.10;99.90;;;;;;4974740;28;20226;-71
2023/12/11 02:18:08;;;;;;;14.20;3.78;;;35.60;99.90;;;;;;4976614;28;20667;-71
2023/12/11 02:20:37;;;;;;;12.68;2.95;;;36.00;99.90;;;;;;4995713;28;20194;-70
2023/12/11 02:23:37;;;;;;;11.48;3.17;;;35.80;99.90;;;;;;4995848;28;20206;-71
2023/12/11 02:26:13;;;;;;;11.07;2.70;;;35.80;99.90;;;;;;4984918;28;20210;-72
2023/12/11 02:28:40;;;;;;;16.05;2.70;;;35.80;99.90;;;;;;4995638;28;20182;-71
2023/12/11 02:31:08;;;;;;;11.05;3.13;;;35.80;99.90;;;;;;4995241;28;20214;-71
2023/12/11 02:33:35;;;;;;;13.32;3.20;;;35.80;99.90;;;;;;4995203;28;20551;-72
2023/12/11 02:36:03;;;;;;;16.23;3.22;;;35.80;99.90;;;;;;4994719;28;20604;-68
2023/12/11 02:38:30;;;;;;;14.68;2.92;;;35.60;99.90;;;;;;4994156;28;20196;-71
2023/12/11 02:40:58;;;;;;;13.98;3.15;;;35.70;99.90;;;;;;4992771;28;20273;-72
2023/12/11 02:43:25;;;;;;;16.00;2.92;;;35.60;99.90;;;;;;4994866;28;20206;-71
2023/12/11 02:45:53;;;;;;;8.73;3.13;;;35.50;99.90;;;;;;4994950;28;20185;-70
2023/12/11 02:48:20;;;;;;;12.10;2.97;;;35.30;99.90;;;;;;4995130;28;20290;-70
2023/12/11 02:50:48;;;;;;;10.50;2.40;;;35.70;99.90;;;;;;4994113;28;20221;-70
2023/12/11 02:53:15;;;;;;;11.02;3.40;;;35.20;99.90;;;;;;4994540;28;20183;-71
2023/12/11 02:55:42;;;;;;;9.52;2.40;;;34.90;99.90;;;;;;4994736;28;20742;-73
2023/12/11 02:58:10;;;;;;;14.95;3.05;;;35.20;99.90;;;;;;4961608;28;20191;-71
2023/12/11 03:00:37;;;;;;;8.02;2.85;;;34.90;99.90;;;;;;4994020;28;20233;-70
2023/12/11 03:03:05;;;;;;;11.18;2.63;;;34.70;99.90;;;;;;4994724;28;20214;-70
2023/12/11 03:05:32;;;;;;;11.30;2.85;;;34.90;99.90;;;;;;4994763;28;20249;-71
2023/12/11 03:08:02;;;;;;;9.13;2.78;;;34.40;99.90;;;;;;4994138;28;20179;-71
2023/12/11 03:10:29;;;;;;;12.32;2.88;;;34.20;99.90;;;;;;4994487;28;20261;-70
2023/12/11 03:12:56;;;;;;;13.68;3.55;;;34.50;99.90;;;;;;4993942;28;20178;-69
2023/12/11 03:15:24;;;;;;;10.45;3.17;;;34.50;99.90;;;;;;4994229;28;20178;-71
2023/12/11 03:17:51;;;;;;;9.13;2.95;;;34.80;99.90;;;;;;4995099;28;20233;-71
2023/12/11 03:20:19;;;;;;;12.57;2.97;;;34.80;99.90;;;;;;4995078;28;20265;-71
2023/12/11 03:22:46;;;;;;;10.88;2.63;;;34.80;99.90;;;;;;4976491;28;20209;-71
2023/12/11 03:25:16;;;;;;;10.32;3.05;;;34.70;99.90;;;;;;4994170;28;20183;-71
2023/12/11 03:27:44;;;;;;;11.55;3.47;;;34.90;99.90;;;;;;4974528;28;20172;-71
2023/12/11 03:30:11;;;;;;;9.77;2.97;;;34.70;99.90;;;;;;4974441;28;20183;-70
2023/12/11 03:32:39;;;;;;;12.75;3.53;;;34.60;99.90;;;;;;4957596;28;20193;-70
2023/12/11 03:35:07;;;;;;;14.80;4.32;;;34.30;99.90;;;;;;4974926;28;20183;-71
2023/12/11 03:37:34;;;;;;;13.35;3.13;;;34.30;99.90;;;;;;4990458;28;20186;-70
2023/12/11 03:40:03;;;;;;;16.58;4.32;;;33.80;99.90;;;;;;4994244;28;20194;-71
2023/12/11 03:42:30;;;;;;;13.20;3.60;;;34.00;99.90;;;;;;4993784;28;20758;-70
2023/12/11 03:44:58;;;;;;;12.88;3.35;;;34.30;99.90;;;;;;4993830;28;20530;-71
2023/12/11 03:47:25;;;;;;;10.23;3.30;;;34.50;99.90;;;;;;4993865;28;20210;-71
2023/12/11 03:49:53;;;;;;;14.50;4.03;;;34.30;99.90;;;;;;4994114;28;20178;-69
2023/12/11 03:52:21;;;;;;;12.85;4.07;;;34.30;99.90;;;;;;4993487;28;20234;-71
2023/12/11 03:54:48;;;;;;;13.05;3.55;;;34.20;99.90;;;;;;4993719;28;20287;-70
2023/12/11 03:57:15;;;;;;;12.05;3.20;;;34.10;99.90;;;;;;4993787;28;20186;-70
2023/12/11 03:59:43;;;;;;;14.90;3.63;;;34.00;99.90;;;;;;4993369;28;20178;-70
2023/12/11 04:02:10;;;;;;;13.32;3.20;;;34.20;99.90;;;;;;4993961;28;20197;-70
2023/12/11 04:04:37;;;;;;;9.75;3.10;;;34.30;99.90;;;;;;4993569;28;20710;-70
2023/12/11 04:07:05;;;;;;;12.50;3.38;;;34.50;99.90;;;;;;4993396;28;20214;-71
2023/12/11 04:09:32;;;;;;;9.02;2.60;;;34.20;99.90;;;;;;4976331;28;20596;-71
2023/12/11 04:11:59;;;;;;;14.27;3.00;;;34.40;99.90;;;;;;4993529;28;20194;-71
2023/12/11 04:14:27;;;;;;;11.90;2.90;;;33.80;99.90;;;;;;4992854;28;20190;-71
2023/12/11 04:16:54;;;;;;;12.15;3.08;;;33.80;99.90;;;;;;4993087;28;20190;-71
2023/12/11 04:19:22;;;;;;;12.27;3.00;;;33.70;99.90;;;;;;4993479;28;20273;-71
2023/12/11 04:21:52;;;;;;;10.68;2.75;;;33.80;99.90;;;;;;4993095;28;20252;-71
2023/12/11 04:24:19;;;;;;;15.38;2.47;;;33.60;99.90;;;;;;4993263;28;20683;-71
2023/12/11 04:26:47;;;;;;;14.80;3.67;;;33.70;99.90;;;;;;4993406;28;20193;-71
2023/12/11 04:29:14;;;;;;;8.40;2.88;;;33.70;99.90;;;;;;4992690;28;20656;-70
2023/12/11 04:31:41;;;;;;;9.82;3.22;;;34.10;99.90;;;;;;4993153;28;20592;-70
2023/12/11 04:34:09;;;;;;;11.80;3.28;;;34.10;99.90;;;;;;4992630;28;20179;-69
2023/12/11 04:36:43;;;;;;;11.30;3.25;;;33.70;99.90;;;;;;4992398;28;20617;-70
2023/12/11 04:39:12;;;;;;;10.45;2.67;;;33.80;99.90;;;;;;4992232;28;20190;-71
2023/12/11 04:41:39;;;;;;;12.05;2.85;;;33.90;99.90;;;;;;4992901;28;20198;-71
2023/12/11 04:44:07;;;;;;;9.93;2.95;;;33.30;99.90;;;;;;4992722;28;20226;-70
2023/12/11 04:46:34;;;;;;;13.57;2.88;;;33.30;99.90;;;;;;4992846;28;20171;-69
2023/12/11 04:49:02;;;;;;;10.80;2.78;;;33.30;99.90;;;;;;4992386;28;20237;-69
2023/12/11 04:51:29;;;;;;;10.95;2.83;;;32.80;99.90;;;;;;4992616;28;20229;-69
2023/12/11 04:53:58;;;;;;;11.98;3.03;;;32.60;99.90;;;;;;4992353;28;20193;-69
2023/12/11 04:56:26;;;;;;;13.88;2.90;;;32.60;99.90;;;;;;4992467;28;20214;-69
2023/12/11 04:58:54;;;;;;;14.98;2.72;;;32.60;99.90;;;;;;4991109;28;20281;-70
2023/12/11 05:01:21;;;;;;;10.20;2.47;;;32.80;99.90;;;;;;4993551;28;20632;-70
2023/12/11 05:03:49;;;;;;;11.35;2.67;;;32.70;99.90;;;;;;4993844;28;20630;-70
2023/12/11 05:06:16;;;;;;;10.18;2.92;;;32.90;99.90;;;;;;4994186;28;20487;-69
2023/12/11 05:08:44;;;;;;;11.18;2.70;;;33.20;99.90;;;;;;4994324;28;20182;-70
2023/12/11 05:11:11;;;;;;;11.52;2.78;;;33.10;99.90;;;;;;4972472;28;20193;-70
2023/12/11 05:13:38;;;;;;;10.55;2.38;;;33.20;99.90;;;;;;4992203;28;20186;-71
2023/12/11 05:16:06;;;;;;;10.80;2.60;;;32.80;99.90;;;;;;4992447;28;20517;-71
2023/12/11 05:18:34;;;;;;;13.80;2.83;;;32.70;99.90;;;;;;4992175;28;20964;-71
2023/12/11 05:21:07;;;;;;;15.13;3.08;;;33.00;99.90;;;;;;4992143;28;20636;-71
2023/12/11 05:23:34;;;;;;;13.10;2.60;;;32.80;99.90;;;;;;4992356;28;20308;-70
2023/12/11 05:26:02;;;;;;;18.33;2.88;;;32.80;99.90;;;;;;4991240;28;20178;-69
2023/12/11 05:28:30;;;;;;;13.15;3.30;;;32.40;99.90;;;;;;4991795;28;20209;-71
2023/12/11 05:30:57;;;;;;;12.18;2.65;;;32.40;99.90;;;;;;4990527;28;20648;-71
2023/12/11 05:33:25;;;;;;;14.43;3.25;;;32.70;99.90;;;;;;4991666;28;20179;-70
2023/12/11 05:35:52;;;;;;;11.98;2.92;;;32.40;99.90;;;;;;4991851;28;20185;-70
2023/12/11 05:38:19;;;;;;;11.88;2.70;;;31.90;99.90;;;;;;4991890;28;20238;-71
2023/12/11 05:40:47;;;;;;;7.97;2.33;;;31.80;99.90;;;;;;4991311;28;20209;-70
2023/12/11 05:43:14;;;;;;;14.52;3.25;;;31.70;99.90;;;;;;4991949;28;20305;-71
2023/12/11 05:45:42;;;;;;;9.82;2.63;;;31.60;99.90;;;;;;4991702;28;20198;-69
2023/12/11 05:48:09;;;;;;;11.73;2.50;;;31.40;99.90;;;;;;4990900;28;20210;-69
2023/12/11 05:50:36;;;;;;;11.80;3.03;;;31.50;99.90;;;;;;4989209;28;20214;-70
2023/12/11 05:53:04;;;;;;;12.73;2.38;;;31.40;99.90;;;;;;4995777;28;20213;-71
2023/12/11 05:55:31;;;;;;;7.30;2.38;;;31.50;99.90;;;;;;4995224;28;20325;-71
2023/12/11 05:57:59;;;;;;;9.50;2.23;;;31.40;99.90;;;;;;4996004;28;20182;-71
2023/12/11 06:00:26;;;;;;;14.63;3.00;;;31.40;99.90;;;;;;4996086;28;20179;-71
2023/12/11 06:02:53;;;;;;;11.52;2.72;;;31.20;99.90;;;;;;4995543;28;20691;-72
2023/12/11 06:05:21;;;;;;;14.07;2.90;;;31.20;99.90;;;;;;4986625;28;20195;-71
2023/12/11 06:07:48;;;;;;;12.70;3.17;;;31.10;99.90;;;;;;4995832;28;20193;-70
2023/12/11 06:10:15;;;;;;;12.00;2.60;;;30.90;99.90;;;;;;4995334;28;20182;-70
2023/12/11 06:12:43;;;;;;;10.13;2.63;;;30.50;99.90;;;;;;4995969;28;20636;-72
2023/12/11 06:15:11;;;;;;;10.20;2.77;;;30.20;99.90;;;;;;4995748;28;20189;-71
2023/12/11 06:17:38;;;;;;;12.53;2.67;;;30.00;99.90;;;;;;4995396;28;20968;-70
2023/12/11 06:20:07;;;;;;;10.13;3.07;;;29.90;99.90;;;;;;4995833;28;20659;-71
2023/12/11 06:22:34;;;;;;;11.67;3.20;;;30.20;99.90;;;;;;4995538;28;20178;-71
2023/12/11 06:25:02;;;;;;;16.50;3.27;;;29.90;99.90;;;;;;4994997;28;20217;-71
2023/12/11 06:27:29;;;;;;;7.33;2.50;;;30.20;99.90;;;;;;4995620;28;20222;-71
2023/12/11 06:29:57;;;;;;;10.37;3.03;;;30.20;99.90;;;;;;4995778;28;20189;-71
2023/12/11 06:32:24;;;;;;;11.00;3.07;;;30.00;99.90;;;;;;4995021;28;20186;-72
2023/12/11 06:34:51;;;;;;;11.17;2.30;;;29.70;99.90;;;;;;4995007;28;20179;-71
2023/12/11 06:37:19;;;;;;;16.20;3.43;;;29.40;99.90;;;;;;4995300;28;20528;-71
2023/12/11 06:39:48;;;;;;;9.50;2.67;;;29.20;99.90;;;;;;4994632;28;20547;-69
2023/12/11 06:42:15;;;;;;;6.83;2.23;;;29.40;99.90;;;;;;4995003;28;20273;-70
2023/12/11 06:44:43;;;;;;;9.33;2.00;;;29.50;99.90;;;;;;4995018;28;20214;-71
2023/12/11 06:47:10;;;;;;;10.43;2.50;;;29.30;99.90;;;;;;4994083;28;20607;-71
2023/12/11 06:49:37;;;;;;;11.90;2.73;;;29.00;99.90;;;;;;4995102;28;20175;-73
2023/12/11 06:52:05;;;;;;;11.33;2.57;;;29.30;99.90;;;;;;4995295;28;20229;-71
2023/12/11 06:54:32;;;;;;;12.10;2.77;;;29.60;99.90;;;;;;4995119;28;20223;-70
2023/12/11 06:57:00;;;;;;;10.27;2.43;;;29.60;99.90;;;;;;4994926;28;20178;-68
2023/12/11 06:59:28;;;;;;;13.00;2.80;;;29.30;99.90;;;;;;4998476;28;20201;-70
2023/12/11 07:01:56;;;;;;;13.17;3.00;;;29.00;99.90;;;;;;4996220;28;20186;-70
2023/12/11 07:07:45;;;;;;;11.77;2.23;;;29.30;99.90;;;;;;4995208;28;20663;-69
2023/12/11 07:10:13;;;;;;;7.33;1.90;;;29.20;99.90;;;;;;4994505;28;20261;-69
2023/12/11 07:12:45;;;;;;;6.40;2.07;;;29.00;99.90;;;;;;4994979;28;20178;-70
2023/12/11 07:15:13;;;;;;;8.40;2.27;;;28.70;99.90;;;;;;4995058;28;20193;-70
2023/12/11 07:17:41;;;;;;;14.47;2.97;;;28.50;99.90;;;;;;4994663;28;20317;-71
2023/12/11 07:20:10;;;;;;;11.00;2.30;;;28.40;99.90;;;;;;4994676;28;20191;-71
2023/12/11 07:22:37;;;;;;;10.77;2.33;;;28.40;99.90;;;;;;4994647;28;20194;-70
2023/12/11 07:25:05;;;;;;;14.30;2.53;;;28.40;99.90;;;;;;4994270;28;20191;-70
2023/12/11 07:27:33;;;;;;;8.40;2.27;;;28.10;99.90;;;;;;4994589;28;20262;-70
2023/12/11 07:30:01;;;;;;;8.37;1.67;;;28.20;99.90;;;;;;4994168;28;20197;-70
2023/12/11 07:32:28;;;;;;;8.37;1.63;;;28.00;99.90;;;;;;4993759;28;20186;-69
2023/12/11 07:34:56;;;;;;;8.90;2.37;;;28.00;99.90;;;;;;4993902;28;20849;-69
2023/12/11 07:37:23;;;;;;;10.70;1.87;;;28.10;99.90;;;;;;4991499;28;20187;-69
2023/12/11 07:39:50;;;;;;;8.90;2.20;;;28.20;99.90;;;;;;4992977;28;20197;-70
2023/12/11 07:42:18;;;;;;;10.17;2.03;;;28.20;99.90;;;;;;4994034;28;20193;-71
2023/12/11 07:44:45;;;;;;;13.97;2.37;;;28.20;99.90;;;;;;4993977;28;20302;-72
2023/12/11 07:47:13;;;;;;;9.57;1.90;;;28.00;99.90;;;;;;4993344;28;20182;-71
2023/12/11 07:49:40;;;;;;;14.30;2.47;;;28.00;99.90;;;;;;4994076;28;20257;-70
2023/12/11 07:52:08;;;;;;;10.80;2.47;;;27.90;99.90;;;;;;4992026;28;20233;-70
2023/12/11 07:54:35;;;;;;;8.43;2.17;;;27.70;99.90;;;;;;4992761;28;20317;-70
2023/12/11 07:57:02;;;;;;;13.90;3.60;;;27.20;99.90;;;;;;4993895;28;20278;-71
2023/12/11 07:59:30;;;;;;;12.23;2.40;;;27.00;99.90;;;;;;4993677;28;20209;-70
2023/12/11 08:01:57;;;;;;;9.03;2.40;;;26.80;99.90;;;;;;4976075;28;20213;-70
2023/12/11 08:04:24;;;;;;;6.93;2.30;;;26.90;99.90;;;;;;4993581;28;20671;-70
2023/12/11 08:06:52;;;;;;;9.20;2.20;;;26.90;99.90;;;;;;4993745;28;20182;-70
2023/12/11 08:09:19;;;;;;;13.20;2.50;;;26.80;99.90;;;;;;4993441;28;20638;-71
2023/12/11 08:11:49;;;;;;;9.50;2.13;;;26.70;99.90;;;;;;4976287;28;20554;-71
2023/12/11 08:14:16;;;;;;;10.17;2.57;;;26.70;99.90;;;;;;4993341;28;20257;-70
2023/12/11 08:16:44;;;;;;;10.47;2.33;;;26.80;99.90;;;;;;4992999;28;20183;-71
2023/12/11 08:19:12;;;;;;;9.70;2.77;;;26.70;99.90;;;;;;4993170;28;20276;-70
2023/12/11 08:21:39;;;;;;;7.93;2.10;;;26.30;99.90;;;;;;4993219;28;20216;-71
2023/12/11 08:24:07;;;;;;;8.80;2.83;;;26.30;99.90;;;;;;4992998;28;20222;-71
2023/12/11 08:26:34;;;;;;;14.57;2.53;;;26.20;99.90;;;;;;4993926;28;20206;-70
2023/12/11 08:29:02;;;;;;;9.97;2.90;;;26.10;99.90;;;;;;4993666;28;20253;-70
2023/12/11 08:31:29;;;;;;;7.67;3.43;;;26.10;99.90;;;;;;4992832;28;20266;-71
2023/12/11 08:33:57;;;;;;;12.13;4.13;;;26.00;99.90;;;;;;4993076;28;20648;-70
2023/12/11 08:36:24;;;;;;;16.97;3.67;;;26.00;99.90;;;;;;4992892;28;20178;-72
2023/12/11 08:38:52;;;;;;;12.47;3.83;;;25.90;99.90;;;;;;4992145;28;20213;-70
2023/12/11 08:41:19;;;;;;;14.37;4.20;;;25.90;99.90;;;;;;4993011;28;20182;-70
2023/12/11 08:43:47;;;;;;;14.60;4.73;;;25.90;99.90;;;;;;4992964;28;20206;-70
2023/12/11 08:46:15;;;;;;;13.97;4.43;;;25.90;99.90;;;;;;4992505;28;20640;-71
2023/12/11 08:48:44;;;;;;;13.27;4.50;;;25.70;99.90;;;;;;4992773;28;20253;-72
2023/12/11 08:51:12;;;;;;;8.97;4.00;;;25.70;99.90;;;;;;4992967;28;20221;-70
2023/12/11 08:53:39;;;;;;;12.07;3.70;;;25.70;99.90;;;;;;4992580;28;20178;-72
2023/12/11 08:56:07;;;;;;;8.57;3.80;;;25.60;99.90;;;;;;4975190;28;20237;-71
2023/12/11 08:58:34;;;;;;;11.40;3.83;;;25.50;99.90;;;;;;4992657;28;20201;-70
2023/12/11 09:01:03;;;;;;;10.27;4.10;;;25.40;99.90;;;;;;4992292;28;20514;-72
2023/12/11 09:03:30;;;;;;;10.20;3.73;;;25.40;99.90;;;;;;4974874;28;20673;-70
2023/12/11 09:06:01;;;;;;;17.13;3.83;;;25.40;99.90;;;;;;4992924;28;20182;-72
2023/12/11 09:08:29;;;;;;;7.87;3.23;;;25.30;99.90;;;;;;4992936;28;20182;-70
2023/12/11 09:10:56;;;;;;;15.50;3.40;;;25.30;99.90;;;;;;4994061;28;20244;-70
2023/12/11 09:13:24;;;;;;;11.97;2.73;;;25.30;99.90;;;;;;4994596;28;20262;-72
2023/12/11 09:15:51;;;;;;;12.83;3.10;;;25.20;99.90;;;;;;4993907;28;20225;-71
2023/12/11 09:18:18;;;;;;;9.27;2.63;;;25.20;99.90;;;;;;4994102;28;20265;-70
2023/12/11 09:20:46;;;;;;;12.57;3.87;;;25.10;99.90;;;;;;4994454;28;20182;-71
2023/12/11 09:23:14;;;;;;;11.43;2.43;;;25.10;99.90;;;;;;4993920;28;20268;-70
2023/12/11 09:25:42;;;;;;;13.40;3.03;;;25.10;99.90;;;;;;4993636;28;20195;-72
2023/12/11 09:28:09;;;;;;;9.47;3.13;;;25.10;99.90;;;;;;4993439;28;20222;-69
2023/12/11 09:30:37;;;;;;;10.80;3.40;;;25.00;99.90;;;;;;4993912;28;20190;-71
2023/12/11 09:33:04;;;;;;;11.20;3.07;;;25.00;99.90;;;;;;4993989;28;20260;-70
2023/12/11 09:35:32;;;;;;;8.90;2.80;;;25.10;99.90;;;;;;4969305;28;20197;-70
2023/12/11 09:37:59;;;;;;;13.40;2.97;;;25.10;99.90;;;;;;4991911;28;20902;-70
2023/12/11 09:40:26;;;;;;;13.17;2.63;;;25.20;99.90;;;;;;4992374;28;20201;-72
2023/12/11 09:42:54;;;;;;;9.43;2.67;;;25.20;99.90;;;;;;4991419;28;20236;-73
2023/12/11 09:45:22;;;;;;;12.80;3.43;;;25.30;99.90;;;;;;4992039;28;20183;-70
2023/12/11 09:47:55;;;;;;;15.93;2.73;;;25.40;99.90;;;;;;4991764;28;20178;-71
2023/12/11 09:50:23;;;;;;;20.07;3.10;;;25.40;99.90;;;;;;4989442;28;20214;-70
2023/12/11 09:52:52;;;;;;;14.30;3.97;;;25.50;99.90;;;;;;4991911;28;20636;-71
2023/12/11 09:55:19;;;;;;;13.70;2.87;;;25.60;99.90;;;;;;4991898;28;20226;-72
2023/12/11 09:57:47;;;;;;;8.90;2.90;;;25.60;99.90;;;;;;4990878;28;20266;-71
2023/12/11 10:00:15;;;;;;;12.50;2.90;;;25.60;99.90;;;;;;4993822;28;20178;-70
2023/12/11 10:02:53;;;;;;;14.93;2.93;;;25.50;99.90;;;;;;4992734;28;20202;-71
2023/12/11 10:05:27;;;;;;;19.40;3.57;;;25.50;99.90;;;;;;4992983;28;20244;-70
2023/12/11 10:07:58;;;;;;;12.87;2.50;;;25.40;99.90;;;;;;4992494;28;20269;-70
2023/12/11 10:10:27;;;;;;;15.17;3.07;;;25.30;99.90;;;;;;4992317;28;20289;-69
2023/12/11 10:12:55;;;;;;;17.43;3.37;;;25.30;99.90;;;;;;4991988;28;20182;-70
2023/12/11 10:15:36;;;;;;;15.17;3.27;;;25.30;99.90;;;;;;4992199;28;20651;-71
2023/12/11 10:18:04;;;;;;;14.87;2.87;;;25.20;99.90;;;;;;4990260;28;20187;-70
2023/12/11 10:20:33;;;;;;;11.70;2.30;;;25.20;99.90;;;;;;4991932;28;20672;-70
2023/12/11 10:23:15;;;;;;;12.83;2.70;;;25.10;99.90;;;;;;4992372;28;20285;-71
2023/12/11 10:25:48;;;;;;;14.13;2.43;;;25.10;99.90;;;;;;4992439;28;20259;-72
2023/12/11 10:28:18;;;;;;;17.93;3.40;;;25.10;99.90;;;;;;4991642;28;20229;-71
2023/12/11 10:30:56;;;;;;;12.30;3.30;;;25.10;99.90;;;;;;4992229;28;20233;-70
2023/12/11 10:33:45;;;;;;;12.67;2.77;;;25.20;99.90;;;;;;4991964;28;20194;-69
2023/12/11 10:36:15;;;;;;;13.50;3.50;;;25.20;99.90;;;;;;4991294;28;20220;-71
2023/12/11 10:38:43;;;;;;;16.57;2.50;;;25.20;99.90;;;;;;4993735;28;20182;-71
2023/12/11 10:41:26;;;;;;;13.80;2.73;;;25.20;99.90;;;;;;4995546;28;20210;-71
2023/12/11 10:43:53;;;;;;;13.03;3.07;;;25.10;99.90;;;;;;4994921;28;20560;-70
2023/12/11 10:46:21;;;;;;;17.77;3.23;;;25.10;99.90;;;;;;4995676;28;20197;-71
2023/12/11 10:48:49;;;;;;;13.47;2.47;;;25.00;99.90;;;;;;4995371;28;20636;-72
2023/12/11 10:51:16;;;;;;;12.23;2.70;;;24.90;99.90;;;;;;4995050;28;20175;-69
2023/12/11 10:53:45;;;;;;;16.67;2.70;;;24.80;99.90;;;;;;4995382;28;20233;-69
2023/12/11 10:56:13;;;;;;;10.83;2.73;;;24.90;99.90;;;;;;4994056;28;20567;-69
2023/12/11 10:58:40;;;;;;;21.67;3.73;;;24.80;99.90;;;;;;4995076;28;20178;-69
2023/12/11 11:01:12;;;;;;;9.53;2.40;;;24.80;99.90;;;;;;4994198;28;20187;-71
2023/12/11 11:03:39;;;;;;;15.20;3.03;;;24.80;99.90;;;;;;4994923;28;20221;-71
2023/12/11 11:06:08;;;;;;;12.20;2.93;;;24.80;99.90;;;;;;4994833;28;20174;-71
2023/12/11 11:08:48;;;;;;;16.60;2.53;;;24.90;99.90;;;;;;4994063;28;20186;-69
2023/12/11 11:11:15;;;;;;;13.80;2.40;;;24.90;99.90;;;;;;4995481;28;20317;-72
2023/12/11 11:14:12;;;;;;;13.77;2.70;;;24.90;99.90;;;;;;4994483;28;20175;-69
2023/12/11 11:16:55;;;;;;;9.97;2.50;;;24.90;99.90;;;;;;4980771;28;20214;-70
2023/12/11 11:19:34;;;;;;;11.43;2.30;;;24.90;99.90;;;;;;4994666;28;20233;-72
2023/12/11 11:22:06;;;;;;;12.97;2.63;;;24.90;99.90;;;;;;4995527;28;20182;-69
2023/12/11 11:24:35;;;;;;;12.43;2.57;;;24.90;99.90;;;;;;4995337;28;20217;-71
2023/12/11 11:27:23;;;;;;;10.73;2.67;;;24.80;99.90;;;;;;4994833;28;20195;-70
2023/12/11 11:29:51;;;;;;;14.87;3.10;;;24.70;99.90;;;;;;4995110;28;20263;-72
2023/12/11 11:32:19;;;;;;;9.87;2.87;;;24.60;99.90;;;;;;4995433;28;20267;-71
2023/12/11 11:34:47;;;;;;;14.83;3.03;;;24.70;99.90;;;;;;4995198;28;20647;-72
2023/12/11 11:37:17;;;;;;;8.90;2.30;;;24.70;99.90;;;;;;4995279;28;20190;-72
2023/12/11 11:40:03;;;;;;;;;;;24.70;99.90;;;;;;4996473;28;20183;-68
2023/12/11 11:42:36;;;;;;;14.87;3.00;;;24.70;99.90;;;;;;4996101;28;20036;-72
2023/12/11 11:45:11;;;;;;;11.73;2.50;;;24.60;99.90;;;;;;4994917;28;20179;-69
2023/12/11 11:47:38;;;;;;;16.27;3.13;;;24.60;99.90;;;;;;4993031;28;20447;-70
2023/12/11 11:50:13;;;;;;;14.77;2.97;;;24.60;99.90;;;;;;4992393;28;20237;-69
2023/12/11 11:52:43;;;;;;;16.73;2.87;;;24.60;99.90;;;;;;4993040;28;20248;-69
2023/12/11 11:55:38;;;;;;;9.97;2.03;;;24.60;99.90;;;;;;4994388;28;20708;-69
2023/12/11 11:58:15;;;;;;;13.60;2.63;;;24.60;99.90;;;;;;4992635;28;20199;-70
2023/12/11 12:00:43;;;;;;;12.60;2.63;;;24.60;99.90;;;;;;4994333;28;20245;-70
2023/12/11 12:03:10;;;;;;;16.93;2.80;;;24.50;99.90;;;;;;4993983;28;20241;-70
2023/12/11 12:05:53;;;;;;;14.97;2.40;;;24.60;99.90;;;;;;4993866;28;20587;-72
2023/12/11 12:11:43;;;;;;;16.40;3.47;;;24.70;99.90;;;;;;4975467;28;20678;-71
2023/12/11 12:14:16;;;;;;;16.03;3.03;;;24.70;99.90;;;;;;4994169;28;20190;-70
2023/12/11 12:16:44;;;;;;;15.90;3.30;;;24.80;99.90;;;;;;4993701;28;20178;-70
2023/12/11 12:19:11;;;;;;;13.63;2.63;;;24.80;99.90;;;;;;4993243;28;20273;-71
2023/12/11 12:21:52;;;;;;;15.93;3.40;;;24.80;99.90;;;;;;4993402;28;20559;-70
2023/12/11 12:24:20;;;;;;;12.10;2.50;;;24.80;99.90;;;;;;4993782;28;20222;-71
2023/12/11 12:26:54;;;;;;;16.60;3.17;;;24.80;99.90;;;;;;4993458;28;20182;-70
2023/12/11 12:29:21;;;;;;;14.43;2.77;;;24.80;99.90;;;;;;4993580;28;20277;-70
2023/12/11 12:31:52;;;;;;;14.37;2.77;;;24.80;99.90;;;;;;4993368;28;20210;-70
2023/12/11 12:34:20;;;;;;;12.23;2.77;;;24.90;99.90;;;;;;4993159;28;20609;-70
2023/12/11 12:36:48;;;;;;;14.10;3.53;;;24.90;99.90;;;;;;4993655;28;20185;-70
2023/12/11 12:39:20;;;;;;;14.40;2.77;;;24.80;99.90;;;;;;4993214;28;20182;-70
2023/12/11 12:41:51;;;;;;;14.90;2.90;;;24.80;99.90;;;;;;4992664;28;20648;-70
2023/12/11 12:44:18;;;;;;;12.00;3.13;;;24.70;99.90;;;;;;4993627;28;20229;-72
2023/12/11 12:46:47;;;;;;;19.30;2.80;;;24.70;99.90;;;;;;4993345;28;20190;-69
2023/12/11 12:49:15;;;;;;;14.90;2.83;;;24.70;99.90;;;;;;4993024;28;20190;-70
2023/12/11 12:51:54;;;;;;;21.50;3.30;;;24.70;99.90;;;;;;4993018;28;20265;-70
2023/12/11 12:54:22;;;;;;;14.97;3.37;;;24.80;99.90;;;;;;4973629;28;20191;-70